createdAt,value
2022-08-24T00:00:27.345Z,8.00
2022-08-24T00:01:27.335Z,6.90
2022-08-24T00:02:27.566Z,7.70
2022-08-24T00:03:31.756Z,6.10
2022-08-24T00:04:28.361Z,6.00
2022-08-24T00:05:27.328Z,5.70
2022-08-24T00:06:27.329Z,6.50
2022-08-24T00:07:28.154Z,6.30
2022-08-24T00:08:27.316Z,8.10
2022-08-24T00:09:27.312Z,6.30
2022-08-24T00:10:27.309Z,7.90
2022-08-24T00:11:27.304Z,7.80
2022-08-24T00:12:27.311Z,7.70
2022-08-24T00:13:29.451Z,6.50
2022-08-24T00:14:27.315Z,8.80
2022-08-24T00:15:27.291Z,6.60
2022-08-24T00:16:27.330Z,8.30
2022-08-24T00:17:27.286Z,8.20
2022-08-24T00:18:27.289Z,8.70
2022-08-24T00:19:27.280Z,5.90
2022-08-24T00:20:27.277Z,7.30
2022-08-24T00:21:27.274Z,6.80
2022-08-24T00:22:27.270Z,8.70
2022-08-24T00:23:27.268Z,10.10
2022-08-24T00:24:27.263Z,9.10
2022-08-24T00:25:27.260Z,6.90
2022-08-24T00:26:28.937Z,8.30
2022-08-24T00:27:27.254Z,7.60
2022-08-24T00:28:27.253Z,7.00
2022-08-24T00:29:27.246Z,6.70
2022-08-24T00:30:27.246Z,9.10
2022-08-24T00:31:27.268Z,7.10
2022-08-24T00:32:27.238Z,8.80
2022-08-24T00:33:27.238Z,8.90
2022-08-24T00:34:27.234Z,9.70
2022-08-24T00:35:27.229Z,9.30
2022-08-24T00:36:27.226Z,9.30
2022-08-24T00:37:27.311Z,7.20
2022-08-24T00:38:27.793Z,9.40
2022-08-24T00:39:27.216Z,9.70
2022-08-24T00:40:27.246Z,6.90
2022-08-24T00:41:27.211Z,6.00
2022-08-24T00:42:27.207Z,6.10
2022-08-24T00:43:27.204Z,7.70
2022-08-24T00:44:27.200Z,8.40
2022-08-24T00:45:27.237Z,8.50
2022-08-24T00:46:27.194Z,8.10
2022-08-24T00:47:27.277Z,9.80
2022-08-24T00:48:27.188Z,10.50
2022-08-24T00:49:27.188Z,8.50
2022-08-24T00:50:27.184Z,10.20
2022-08-24T00:51:27.178Z,8.70
2022-08-24T00:52:27.175Z,10.40
2022-08-24T00:53:27.174Z,10.40
2022-08-24T00:54:27.169Z,9.90
2022-08-24T00:55:27.164Z,11.70
2022-08-24T00:56:27.164Z,12.80
2022-08-24T00:57:27.163Z,9.80
2022-08-24T00:58:27.171Z,10.00
2022-08-24T00:59:27.153Z,8.90
2022-08-24T01:00:27.159Z,7.40
2022-08-24T01:01:27.179Z,5.30
2022-08-24T01:02:27.291Z,8.60
2022-08-24T01:03:27.143Z,7.10
2022-08-24T01:04:27.136Z,8.20
2022-08-24T01:05:27.133Z,8.60
2022-08-24T01:06:27.130Z,6.80
2022-08-24T01:07:27.131Z,7.10
2022-08-24T01:08:27.125Z,7.50
2022-08-24T01:09:27.120Z,7.60
2022-08-24T01:10:27.122Z,6.80
2022-08-24T01:11:27.116Z,6.30
2022-08-24T01:12:27.111Z,4.70
2022-08-24T01:13:27.105Z,6.10
2022-08-24T01:14:27.102Z,6.10
2022-08-24T01:15:27.099Z,7.40
2022-08-24T01:16:27.183Z,5.90
2022-08-24T01:17:27.095Z,6.90
2022-08-24T01:18:27.091Z,8.50
2022-08-24T01:19:27.092Z,8.30
2022-08-24T01:20:27.092Z,7.90
2022-08-24T01:21:27.081Z,9.10
2022-08-24T01:22:27.081Z,7.40
2022-08-24T01:23:27.070Z,8.50
2022-08-24T01:24:27.073Z,7.50
2022-08-24T01:25:27.070Z,8.80
2022-08-24T01:26:27.065Z,13.60
2022-08-24T01:27:28.182Z,13.20
2022-08-24T01:28:27.516Z,12.10
2022-08-24T01:29:27.057Z,10.20
2022-08-24T01:30:30.701Z,9.20
2022-08-24T01:31:27.110Z,6.90
2022-08-24T01:32:27.044Z,7.00
2022-08-24T01:33:27.042Z,7.40
2022-08-24T01:34:27.039Z,8.50
2022-08-24T01:35:27.034Z,8.10
2022-08-24T01:36:28.449Z,7.50
2022-08-24T01:37:27.028Z,6.90
2022-08-24T01:38:27.022Z,6.70
2022-08-24T01:39:27.028Z,6.50
2022-08-24T01:40:27.037Z,7.30
2022-08-24T01:41:29.176Z,9.20
2022-08-24T01:42:27.009Z,6.80
2022-08-24T01:43:27.006Z,8.10
2022-08-24T01:44:27.005Z,9.20
2022-08-24T01:45:27.002Z,6.80
2022-08-24T01:46:27.020Z,8.60
2022-08-24T01:47:26.990Z,7.90
2022-08-24T01:48:26.989Z,7.20
2022-08-24T01:49:26.991Z,7.90
2022-08-24T01:50:26.983Z,7.20
2022-08-24T01:51:26.983Z,6.80
2022-08-24T01:52:38.915Z,9.00
2022-08-24T01:53:26.972Z,8.10
2022-08-24T01:54:26.970Z,9.90
2022-08-24T01:55:26.969Z,8.80
2022-08-24T01:56:26.960Z,8.20
2022-08-24T01:57:26.959Z,8.30
2022-08-24T01:58:26.956Z,6.80
2022-08-24T01:59:26.962Z,8.90
2022-08-24T02:00:26.953Z,11.20
2022-08-24T02:01:27.018Z,9.60
2022-08-24T02:02:26.960Z,11.20
2022-08-24T02:03:29.632Z,12.70
2022-08-24T02:04:26.935Z,8.40
2022-08-24T02:05:26.933Z,10.30
2022-08-24T02:06:26.928Z,8.20
2022-08-24T02:07:26.923Z,7.40
2022-08-24T02:08:26.920Z,9.20
2022-08-24T02:09:30.418Z,8.70
2022-08-24T02:10:26.915Z,9.50
2022-08-24T02:11:26.909Z,7.80
2022-08-24T02:12:26.907Z,7.80
2022-08-24T02:13:26.904Z,6.80
2022-08-24T02:14:26.905Z,7.10
2022-08-24T02:15:26.897Z,7.00
2022-08-24T02:16:26.964Z,8.70
2022-08-24T02:17:26.896Z,8.00
2022-08-24T02:18:26.886Z,7.40
2022-08-24T02:19:26.885Z,7.20
2022-08-24T02:20:26.886Z,7.00
2022-08-24T02:21:26.877Z,9.60
2022-08-24T02:22:26.873Z,8.40
2022-08-24T02:23:26.868Z,8.60
2022-08-24T02:24:26.867Z,8.70
2022-08-24T02:25:26.865Z,10.20
2022-08-24T02:26:26.859Z,8.00
2022-08-24T02:27:26.860Z,9.70
2022-08-24T02:28:26.851Z,12.00
2022-08-24T02:29:26.847Z,8.80
2022-08-24T02:30:26.846Z,9.00
2022-08-24T02:31:26.917Z,8.90
2022-08-24T02:32:26.837Z,9.60
2022-08-24T02:33:26.834Z,8.50
2022-08-24T02:34:26.833Z,9.80
2022-08-24T02:35:26.831Z,10.10
2022-08-24T02:36:26.830Z,9.50
2022-08-24T02:37:26.820Z,8.30
2022-08-24T02:38:26.815Z,9.80
2022-08-24T02:39:26.813Z,8.10
2022-08-24T02:40:26.867Z,9.20
2022-08-24T02:41:26.805Z,10.10
2022-08-24T02:42:26.816Z,8.80
2022-08-24T02:43:26.810Z,8.40
2022-08-24T02:44:26.795Z,11.30
2022-08-24T02:45:26.791Z,10.20
2022-08-24T02:46:26.827Z,8.40
2022-08-24T02:47:38.063Z,7.50
2022-08-24T02:48:26.782Z,9.10
2022-08-24T02:49:26.775Z,11.40
2022-08-24T02:50:26.772Z,10.80
2022-08-24T02:51:26.768Z,10.60
2022-08-24T02:52:26.768Z,10.00
2022-08-24T02:53:26.760Z,11.00
2022-08-24T02:54:26.756Z,12.90
2022-08-24T02:55:26.756Z,10.60
2022-08-24T02:56:26.751Z,9.10
2022-08-24T02:57:26.747Z,12.90
2022-08-24T02:58:26.743Z,10.20
2022-08-24T02:59:26.743Z,10.10
2022-08-24T03:00:26.737Z,12.40
2022-08-24T03:01:30.373Z,13.10
2022-08-24T03:02:26.757Z,10.30
2022-08-24T03:03:26.726Z,9.00
2022-08-24T03:04:26.717Z,10.80
2022-08-24T03:05:26.720Z,10.60
2022-08-24T03:06:26.714Z,9.50
2022-08-24T03:07:26.711Z,7.10
2022-08-24T03:08:26.713Z,8.30
2022-08-24T03:09:28.921Z,7.60
2022-08-24T03:10:26.703Z,10.30
2022-08-24T03:11:28.216Z,9.20
2022-08-24T03:12:26.695Z,9.00
2022-08-24T03:13:26.691Z,10.40
2022-08-24T03:14:26.686Z,9.50
2022-08-24T03:15:26.716Z,8.70
2022-08-24T03:16:26.680Z,8.90
2022-08-24T03:17:26.678Z,10.90
2022-08-24T03:18:26.672Z,11.80
2022-08-24T03:19:26.672Z,11.40
2022-08-24T03:20:26.664Z,9.70
2022-08-24T03:21:26.664Z,11.10
2022-08-24T03:22:26.665Z,10.60
2022-08-24T03:23:26.654Z,11.10
2022-08-24T03:24:26.652Z,10.60
2022-08-24T03:25:26.648Z,9.50
2022-08-24T03:26:26.643Z,11.70
2022-08-24T03:27:26.639Z,9.80
2022-08-24T03:28:26.636Z,13.60
2022-08-24T03:29:26.632Z,9.40
2022-08-24T03:30:26.675Z,8.30
2022-08-24T03:31:26.628Z,10.10
2022-08-24T03:32:26.619Z,9.00
2022-08-24T03:33:26.616Z,9.90
2022-08-24T03:34:26.614Z,8.20
2022-08-24T03:35:26.612Z,9.00
2022-08-24T03:36:26.616Z,8.70
2022-08-24T03:37:26.605Z,9.60
2022-08-24T03:38:26.597Z,8.60
2022-08-24T03:39:26.594Z,7.70
2022-08-24T03:40:26.624Z,8.50
2022-08-24T03:41:26.589Z,10.00
2022-08-24T03:42:26.583Z,8.90
2022-08-24T03:43:26.577Z,8.80
2022-08-24T03:44:26.575Z,9.00
2022-08-24T03:45:26.571Z,7.50
2022-08-24T03:46:26.567Z,8.80
2022-08-24T03:47:26.565Z,9.70
2022-08-24T03:48:26.581Z,8.30
2022-08-24T03:49:26.557Z,10.70
2022-08-24T03:50:26.553Z,9.80
2022-08-24T03:51:26.548Z,8.70
2022-08-24T03:52:28.245Z,8.70
2022-08-24T03:53:26.542Z,8.30
2022-08-24T03:54:26.537Z,9.30
2022-08-24T03:55:26.532Z,8.70
2022-08-24T03:56:26.533Z,6.90
2022-08-24T03:57:26.525Z,7.20
2022-08-24T03:58:26.521Z,8.20
2022-08-24T03:59:26.524Z,11.20
2022-08-24T04:00:26.515Z,10.40
2022-08-24T04:01:26.550Z,9.00
2022-08-24T04:02:29.066Z,9.40
2022-08-24T04:03:26.504Z,7.80
2022-08-24T04:04:26.501Z,9.00
2022-08-24T04:05:26.497Z,8.40
2022-08-24T04:06:26.490Z,10.50
2022-08-24T04:07:26.490Z,8.00
2022-08-24T04:08:26.483Z,6.90
2022-08-24T04:09:26.482Z,9.00
2022-08-24T04:10:26.481Z,8.70
2022-08-24T04:11:26.470Z,7.70
2022-08-24T04:12:26.468Z,8.50
2022-08-24T04:13:26.465Z,9.40
2022-08-24T04:14:27.516Z,8.50
2022-08-24T04:15:26.456Z,7.40
2022-08-24T04:16:26.501Z,6.90
2022-08-24T04:17:26.452Z,6.10
2022-08-24T04:18:28.707Z,8.30
2022-08-24T04:19:26.440Z,7.30
2022-08-24T04:20:26.445Z,6.80
2022-08-24T04:21:26.433Z,7.60
2022-08-24T04:22:26.429Z,6.30
2022-08-24T04:23:39.355Z,8.40
2022-08-24T04:24:26.425Z,5.40
2022-08-24T04:25:26.418Z,6.60
2022-08-24T04:26:36.476Z,9.60
2022-08-24T04:27:26.410Z,8.40
2022-08-24T04:28:26.432Z,5.90
2022-08-24T04:29:26.401Z,8.10
2022-08-24T04:30:26.410Z,8.70
2022-08-24T04:31:26.417Z,7.50
2022-08-24T04:32:26.392Z,7.50
2022-08-24T04:33:26.388Z,6.90
2022-08-24T04:34:26.383Z,5.80
2022-08-24T04:35:26.380Z,6.40
2022-08-24T04:36:26.375Z,5.30
2022-08-24T04:37:28.073Z,8.00
2022-08-24T04:38:26.368Z,5.50
2022-08-24T04:39:26.364Z,6.70
2022-08-24T04:40:26.416Z,7.20
2022-08-24T04:41:31.487Z,5.10
2022-08-24T04:42:26.354Z,8.40
2022-08-24T04:43:26.350Z,8.00
2022-08-24T04:44:26.346Z,5.40
2022-08-24T04:45:26.405Z,6.90
2022-08-24T04:46:26.338Z,8.60
2022-08-24T04:47:26.338Z,12.30
2022-08-24T04:48:26.331Z,13.30
2022-08-24T04:49:26.326Z,13.70
2022-08-24T04:50:26.325Z,25.40
2022-08-24T04:51:26.319Z,12.30
2022-08-24T04:52:26.318Z,13.70
2022-08-24T04:53:26.316Z,27.90
2022-08-24T04:54:26.316Z,13.50
2022-08-24T04:55:26.307Z,11.90
2022-08-24T04:56:26.327Z,11.70
2022-08-24T04:57:26.300Z,10.40
2022-08-24T04:58:26.294Z,10.90
2022-08-24T04:59:26.289Z,15.50
2022-08-24T05:00:26.287Z,61.80
2022-08-24T05:01:26.289Z,79.00
2022-08-24T05:02:26.315Z,39.60
2022-08-24T05:03:26.279Z,53.70
2022-08-24T05:04:26.273Z,13.80
2022-08-24T05:05:26.272Z,26.20
2022-08-24T05:06:26.265Z,59.20
2022-08-24T05:07:26.265Z,22.80
2022-08-24T05:08:26.259Z,47.00
2022-08-24T05:09:26.268Z,58.90
2022-08-24T05:10:26.253Z,114.80
2022-08-24T05:11:26.249Z,55.60
2022-08-24T05:12:26.240Z,121.20
2022-08-24T05:13:26.241Z,21.60
2022-08-24T05:14:28.797Z,19.50
2022-08-24T05:15:26.232Z,41.90
2022-08-24T05:16:26.269Z,91.00
2022-08-24T05:17:26.224Z,53.20
2022-08-24T05:18:26.221Z,99.30
2022-08-24T05:19:26.217Z,39.50
2022-08-24T05:20:26.215Z,34.60
2022-08-24T05:21:26.210Z,179.60
2022-08-24T05:22:26.206Z,119.90
2022-08-24T05:23:26.205Z,145.90
2022-08-24T05:24:26.202Z,98.90
2022-08-24T05:25:26.195Z,77.60
2022-08-24T05:26:26.195Z,71.50
2022-08-24T05:27:26.191Z,39.70
2022-08-24T05:28:26.330Z,36.80
2022-08-24T05:29:26.184Z,16.30
2022-08-24T05:30:26.180Z,18.00
2022-08-24T05:31:26.215Z,21.10
2022-08-24T05:32:26.172Z,51.30
2022-08-24T05:33:26.175Z,47.40
2022-08-24T05:34:26.167Z,37.70
2022-08-24T05:35:26.167Z,39.60
2022-08-24T05:36:26.164Z,34.40
2022-08-24T05:37:26.156Z,47.70
2022-08-24T05:38:26.154Z,23.30
2022-08-24T05:39:26.150Z,19.10
2022-08-24T05:40:26.187Z,57.90
2022-08-24T05:41:26.142Z,26.70
2022-08-24T05:42:26.140Z,27.70
2022-08-24T05:43:26.136Z,15.60
2022-08-24T05:44:30.396Z,24.70
2022-08-24T05:45:26.131Z,16.40
2022-08-24T05:46:26.169Z,20.00
2022-08-24T05:47:26.126Z,19.60
2022-08-24T05:48:26.121Z,14.70
2022-08-24T05:49:26.118Z,12.80
2022-08-24T05:50:26.113Z,12.60
2022-08-24T05:51:26.113Z,13.60
2022-08-24T05:52:26.110Z,13.70
2022-08-24T05:53:26.105Z,13.00
2022-08-24T05:54:26.107Z,15.30
2022-08-24T05:55:26.101Z,16.10
2022-08-24T05:56:31.323Z,14.70
2022-08-24T05:57:26.094Z,15.70
2022-08-24T05:58:31.006Z,15.10
2022-08-24T05:59:26.090Z,13.70
2022-08-24T06:00:26.096Z,13.60
2022-08-24T06:01:26.151Z,17.70
2022-08-24T06:02:26.230Z,16.10
2022-08-24T06:03:26.081Z,15.90
2022-08-24T06:04:26.076Z,18.30
2022-08-24T06:05:26.076Z,17.80
2022-08-24T06:06:26.074Z,17.10
2022-08-24T06:07:26.067Z,16.40
2022-08-24T06:08:26.069Z,18.80
2022-08-24T06:09:26.065Z,18.20
2022-08-24T06:10:37.687Z,23.80
2022-08-24T06:11:30.188Z,21.30
2022-08-24T06:12:26.057Z,20.20
2022-08-24T06:13:26.054Z,21.20
2022-08-24T06:14:27.169Z,18.10
2022-08-24T06:15:26.048Z,17.10
2022-08-24T06:16:26.091Z,21.20
2022-08-24T06:17:26.139Z,18.10
2022-08-24T06:18:26.040Z,20.20
2022-08-24T06:19:26.038Z,17.50
2022-08-24T06:20:26.075Z,20.40
2022-08-24T06:21:26.033Z,20.80
2022-08-24T06:22:26.031Z,35.20
2022-08-24T06:23:26.028Z,30.10
2022-08-24T06:24:26.028Z,32.10
2022-08-24T06:25:26.025Z,41.40
2022-08-24T06:26:26.020Z,32.60
2022-08-24T06:27:26.020Z,30.50
2022-08-24T06:28:26.014Z,27.20
2022-08-24T06:29:26.016Z,29.20
2022-08-24T06:30:30.302Z,29.30
2022-08-24T06:31:26.070Z,29.40
2022-08-24T06:32:26.095Z,25.80
2022-08-24T06:33:26.008Z,28.20
2022-08-24T06:34:26.070Z,25.40
2022-08-24T06:35:25.999Z,24.90
2022-08-24T06:36:25.996Z,25.30
2022-08-24T06:37:25.993Z,21.60
2022-08-24T06:38:25.988Z,23.40
2022-08-24T06:39:25.986Z,18.50
2022-08-24T06:40:26.274Z,21.50
2022-08-24T06:41:25.987Z,20.10
2022-08-24T06:42:25.981Z,20.00
2022-08-24T06:43:25.986Z,19.10
2022-08-24T06:44:25.976Z,21.70
2022-08-24T06:45:25.977Z,18.20
2022-08-24T06:46:29.476Z,19.80
2022-08-24T06:47:25.971Z,19.30
2022-08-24T06:48:25.968Z,20.90
2022-08-24T06:49:25.965Z,19.70
2022-08-24T06:50:26.010Z,18.50
2022-08-24T06:51:25.959Z,25.40
2022-08-24T06:52:25.957Z,25.00
2022-08-24T06:53:25.958Z,23.50
2022-08-24T06:54:25.956Z,21.70
2022-08-24T06:55:25.949Z,22.30
2022-08-24T06:56:25.950Z,22.10
2022-08-24T06:57:25.946Z,47.70
2022-08-24T06:58:25.945Z,27.00
2022-08-24T06:59:25.941Z,26.40
2022-08-24T07:00:25.940Z,23.30
2022-08-24T07:01:26.013Z,27.70
2022-08-24T07:02:25.943Z,23.70
2022-08-24T07:03:25.951Z,31.60
2022-08-24T07:04:28.095Z,37.20
2022-08-24T07:05:25.931Z,36.10
2022-08-24T07:06:25.926Z,40.00
2022-08-24T07:07:25.925Z,30.50
2022-08-24T07:08:25.924Z,33.50
2022-08-24T07:09:25.924Z,31.00
2022-08-24T07:10:25.968Z,34.90
2022-08-24T07:11:25.920Z,41.20
2022-08-24T07:12:25.914Z,38.10
2022-08-24T07:13:25.913Z,53.10
2022-08-24T07:14:25.909Z,34.70
2022-08-24T07:15:25.915Z,56.40
2022-08-24T07:16:25.975Z,37.80
2022-08-24T07:17:25.909Z,37.10
2022-08-24T07:18:25.904Z,34.70
2022-08-24T07:19:25.905Z,31.90
2022-08-24T07:20:25.902Z,31.80
2022-08-24T07:21:25.898Z,32.10
2022-08-24T07:22:25.895Z,36.00
2022-08-24T07:23:41.181Z,41.00
2022-08-24T07:24:25.894Z,45.70
2022-08-24T07:25:25.890Z,45.50
2022-08-24T07:26:25.888Z,41.30
2022-08-24T07:27:25.885Z,40.00
2022-08-24T07:28:27.726Z,45.60
2022-08-24T07:29:46.415Z,36.20
2022-08-24T07:30:27.704Z,37.30
2022-08-24T07:31:25.929Z,34.30
2022-08-24T07:32:25.877Z,36.00
2022-08-24T07:33:25.874Z,38.30
2022-08-24T07:34:25.869Z,38.80
2022-08-24T07:35:25.872Z,38.90
2022-08-24T07:36:25.870Z,36.50
2022-08-24T07:37:33.426Z,35.80
2022-08-24T07:38:25.865Z,35.40
2022-08-24T07:39:25.867Z,36.50
2022-08-24T07:40:25.883Z,33.80
2022-08-24T07:42:31.744Z,35.40
2022-08-24T07:43:25.856Z,33.90
2022-08-24T07:44:25.855Z,34.10
2022-08-24T07:45:25.855Z,31.20
2022-08-24T07:46:25.895Z,33.40
2022-08-24T07:47:39.036Z,30.40
2022-08-24T07:48:25.849Z,29.40
2022-08-24T07:49:36.920Z,29.10
2022-08-24T07:50:25.847Z,28.90
2022-08-24T07:51:25.874Z,28.90
2022-08-24T07:52:25.838Z,29.90
2022-08-24T07:53:32.536Z,28.80
2022-08-24T07:54:25.842Z,29.50
2022-08-24T07:55:25.839Z,26.10
2022-08-24T07:56:25.834Z,23.20
2022-08-24T07:57:25.834Z,29.30
2022-08-24T07:58:25.833Z,28.20
2022-08-24T07:59:25.830Z,27.60
2022-08-24T08:00:25.829Z,27.80
2022-08-24T08:01:25.873Z,24.20
2022-08-24T08:02:29.310Z,26.10
2022-08-24T08:03:25.825Z,22.70
2022-08-24T08:04:25.822Z,24.50
2022-08-24T08:05:25.830Z,23.60
2022-08-24T08:06:25.823Z,27.00
2022-08-24T08:07:25.819Z,23.70
2022-08-24T08:08:25.882Z,22.30
2022-08-24T08:09:25.816Z,23.80
2022-08-24T08:10:25.815Z,23.40
2022-08-24T08:11:25.811Z,22.00
2022-08-24T08:12:25.813Z,23.10
2022-08-24T08:13:25.814Z,23.00
2022-08-24T08:14:25.807Z,21.90
2022-08-24T08:15:25.847Z,21.00
2022-08-24T08:16:25.826Z,20.00
2022-08-24T08:17:25.809Z,18.80
2022-08-24T08:18:25.807Z,22.10
2022-08-24T08:19:25.806Z,21.10
2022-08-24T08:20:25.805Z,19.80
2022-08-24T08:21:25.803Z,20.80
2022-08-24T08:22:25.805Z,22.10
2022-08-24T08:23:25.801Z,22.80
2022-08-24T08:24:25.823Z,20.20
2022-08-24T08:25:25.800Z,20.30
2022-08-24T08:26:25.803Z,22.20
2022-08-24T08:27:25.798Z,20.60
2022-08-24T08:28:33.264Z,20.80
2022-08-24T08:29:25.804Z,21.10
2022-08-24T08:30:25.803Z,25.00
2022-08-24T08:31:25.822Z,21.00
2022-08-24T08:32:25.796Z,20.40
2022-08-24T08:34:25.793Z,22.10
2022-08-24T08:35:25.797Z,19.40
2022-08-24T08:36:25.789Z,20.30
2022-08-24T08:37:26.202Z,18.70
2022-08-24T08:38:25.793Z,20.60
2022-08-24T08:39:25.791Z,21.50
2022-08-24T08:40:25.842Z,20.70
2022-08-24T08:41:26.737Z,19.50
2022-08-24T08:42:25.787Z,19.50
2022-08-24T08:43:25.788Z,17.10
2022-08-24T08:44:25.790Z,18.10
2022-08-24T08:45:25.784Z,17.10
2022-08-24T08:46:25.816Z,18.70
2022-08-24T08:47:25.787Z,17.40
2022-08-24T08:48:25.784Z,18.20
2022-08-24T08:49:25.784Z,17.80
2022-08-24T08:50:25.792Z,20.30
2022-08-24T08:51:25.785Z,20.90
2022-08-24T08:52:25.784Z,18.20
2022-08-24T08:53:25.780Z,19.00
2022-08-24T08:54:25.783Z,18.00
2022-08-24T08:55:25.783Z,18.70
2022-08-24T08:56:25.787Z,18.90
2022-08-24T08:57:25.783Z,20.00
2022-08-24T08:58:25.781Z,20.20
2022-08-24T08:59:25.780Z,21.20
2022-08-24T09:00:25.780Z,20.50
2022-08-24T09:01:25.781Z,21.40
2022-08-24T09:02:25.780Z,21.40
2022-08-24T09:03:25.777Z,20.30
2022-08-24T09:04:25.832Z,21.30
2022-08-24T09:05:25.779Z,22.60
2022-08-24T09:06:25.778Z,22.00
2022-08-24T09:07:25.780Z,21.20
2022-08-24T09:08:25.776Z,22.70
2022-08-24T09:09:25.780Z,19.60
2022-08-24T09:10:25.785Z,20.00
2022-08-24T09:11:25.776Z,20.30
2022-08-24T09:12:25.777Z,19.30
2022-08-24T09:13:25.776Z,18.90
2022-08-24T09:14:25.774Z,17.80
2022-08-24T09:15:25.779Z,19.60
2022-08-24T09:16:25.807Z,19.00
2022-08-24T09:17:25.774Z,20.00
2022-08-24T09:18:25.774Z,20.10
2022-08-24T09:19:25.965Z,19.70
2022-08-24T09:20:25.773Z,20.70
2022-08-24T09:21:25.772Z,23.50
2022-08-24T09:22:25.769Z,22.00
2022-08-24T09:23:25.775Z,22.20
2022-08-24T09:24:25.774Z,22.60
2022-08-24T09:25:26.624Z,19.50
2022-08-24T09:26:25.771Z,23.00
2022-08-24T09:27:25.773Z,21.20
2022-08-24T09:28:25.775Z,19.80
2022-08-24T09:29:25.776Z,19.60
2022-08-24T09:30:25.862Z,18.80
2022-08-24T09:31:25.984Z,18.80
2022-08-24T09:32:25.772Z,19.70
2022-08-24T09:33:25.774Z,18.30
2022-08-24T09:34:25.770Z,17.50
2022-08-24T09:35:26.803Z,19.00
2022-08-24T09:36:25.773Z,20.30
2022-08-24T09:37:25.776Z,20.00
2022-08-24T09:38:25.773Z,19.70
2022-08-24T09:39:25.774Z,19.20
2022-08-24T09:40:25.810Z,19.00
2022-08-24T09:41:25.774Z,19.50
2022-08-24T09:42:25.789Z,21.90
2022-08-24T09:43:25.774Z,25.10
2022-08-24T09:44:25.768Z,21.50
2022-08-24T09:45:25.773Z,21.60
2022-08-24T09:46:25.814Z,21.30
2022-08-24T09:47:25.774Z,22.30
2022-08-24T09:48:25.775Z,22.30
2022-08-24T09:49:25.774Z,20.70
2022-08-24T09:50:25.841Z,22.20
2022-08-24T09:51:25.773Z,20.60
2022-08-24T09:52:25.775Z,23.00
2022-08-24T09:53:25.774Z,20.30
2022-08-24T09:54:25.768Z,20.80
2022-08-24T09:55:25.772Z,21.50
2022-08-24T09:56:25.773Z,20.90
2022-08-24T09:57:44.137Z,21.80
2022-08-24T09:58:25.771Z,20.00
2022-08-24T09:59:25.772Z,20.30
2022-08-24T10:00:25.773Z,20.90
2022-08-24T10:01:25.856Z,20.10
2022-08-24T10:02:25.799Z,18.20
2022-08-24T10:03:36.098Z,18.40
2022-08-24T10:04:25.834Z,17.30
2022-08-24T10:05:25.859Z,17.80
2022-08-24T10:06:25.774Z,17.50
2022-08-24T10:07:25.775Z,17.10
2022-08-24T10:08:25.775Z,16.90
2022-08-24T10:09:25.776Z,14.60
2022-08-24T10:10:25.779Z,16.60
2022-08-24T10:11:25.775Z,18.30
2022-08-24T10:12:25.775Z,20.50
2022-08-24T10:13:25.779Z,18.70
2022-08-24T10:14:25.777Z,16.30
2022-08-24T10:15:25.778Z,17.50
2022-08-24T10:16:25.861Z,18.50
2022-08-24T10:17:25.777Z,15.70
2022-08-24T10:18:25.775Z,15.70
2022-08-24T10:19:25.776Z,16.60
2022-08-24T10:20:25.775Z,15.20
2022-08-24T10:21:25.777Z,15.60
2022-08-24T10:22:25.781Z,14.30
2022-08-24T10:23:25.775Z,18.50
2022-08-24T10:24:29.570Z,15.30
2022-08-24T10:25:25.773Z,15.50
2022-08-24T10:26:25.775Z,14.90
2022-08-24T10:27:25.773Z,15.30
2022-08-24T10:28:25.775Z,15.30
2022-08-24T10:29:25.775Z,15.90
2022-08-24T10:30:27.954Z,16.90
2022-08-24T10:31:25.814Z,16.10
2022-08-24T10:32:25.777Z,15.10
2022-08-24T10:33:25.776Z,13.90
2022-08-24T10:34:25.775Z,15.60
2022-08-24T10:35:25.783Z,15.30
2022-08-24T10:36:25.778Z,18.30
2022-08-24T10:37:25.777Z,15.70
2022-08-24T10:38:25.777Z,15.40
2022-08-24T10:39:25.775Z,14.10
2022-08-24T10:40:25.812Z,15.50
2022-08-24T10:41:25.776Z,14.40
2022-08-24T10:42:25.777Z,14.60
2022-08-24T10:43:26.140Z,15.80
2022-08-24T10:44:25.776Z,16.60
2022-08-24T10:45:25.821Z,15.50
2022-08-24T10:46:25.778Z,13.60
2022-08-24T10:47:25.778Z,13.50
2022-08-24T10:48:25.777Z,13.50
2022-08-24T10:49:25.778Z,14.10
2022-08-24T10:50:30.859Z,15.40
2022-08-24T10:51:25.782Z,13.90
2022-08-24T10:52:25.780Z,15.30
2022-08-24T10:53:25.781Z,15.90
2022-08-24T10:54:25.781Z,14.80
2022-08-24T10:55:25.781Z,15.70
2022-08-24T10:56:25.780Z,16.20
2022-08-24T10:57:25.782Z,16.30
2022-08-24T10:58:25.783Z,15.30
2022-08-24T10:59:25.783Z,16.50
2022-08-24T11:00:25.784Z,14.80
2022-08-24T11:01:25.834Z,18.40
2022-08-24T11:02:25.818Z,14.40
2022-08-24T11:03:28.050Z,15.70
2022-08-24T11:04:25.784Z,14.70
2022-08-24T11:05:25.786Z,17.70
2022-08-24T11:06:25.784Z,16.90
2022-08-24T11:07:25.784Z,14.10
2022-08-24T11:08:25.785Z,17.10
2022-08-24T11:09:25.791Z,15.60
2022-08-24T11:10:25.788Z,14.50
2022-08-24T11:11:25.787Z,16.20
2022-08-24T11:12:25.786Z,14.00
2022-08-24T11:13:25.791Z,14.20
2022-08-24T11:14:25.784Z,15.20
2022-08-24T11:15:25.788Z,14.30
2022-08-24T11:16:25.871Z,15.50
2022-08-24T11:17:25.790Z,16.20
2022-08-24T11:18:25.785Z,15.30
2022-08-24T11:19:25.787Z,14.20
2022-08-24T11:20:25.788Z,11.90
2022-08-24T11:21:25.790Z,10.00
2022-08-24T11:22:25.787Z,11.00
2022-08-24T11:23:31.033Z,13.40
2022-08-24T11:24:25.790Z,13.40
2022-08-24T11:25:25.793Z,13.40
2022-08-24T11:26:25.788Z,14.20
2022-08-24T11:27:25.789Z,12.00
2022-08-24T11:28:25.788Z,12.10
2022-08-24T11:29:25.791Z,12.50
2022-08-24T11:30:25.789Z,10.50
2022-08-24T11:31:25.858Z,11.30
2022-08-24T11:32:25.791Z,12.20
2022-08-24T11:33:25.790Z,12.00
2022-08-24T11:34:25.792Z,12.20
2022-08-24T11:35:25.791Z,11.50
2022-08-24T11:36:25.792Z,11.80
2022-08-24T11:37:29.161Z,12.20
2022-08-24T11:38:25.791Z,11.40
2022-08-24T11:39:25.793Z,10.70
2022-08-24T11:40:25.877Z,11.50
2022-08-24T11:41:25.794Z,12.30
2022-08-24T11:42:29.210Z,11.30
2022-08-24T11:43:25.795Z,11.80
2022-08-24T11:44:25.794Z,11.40
2022-08-24T11:45:25.795Z,12.50
2022-08-24T11:46:25.847Z,11.40
2022-08-24T11:47:25.798Z,10.20
2022-08-24T11:48:28.471Z,11.80
2022-08-24T11:49:25.800Z,11.60
2022-08-24T11:50:25.796Z,13.00
2022-08-24T11:51:25.809Z,13.30
2022-08-24T11:52:25.800Z,11.20
2022-08-24T11:53:25.799Z,11.60
2022-08-24T11:54:25.802Z,12.10
2022-08-24T11:55:25.802Z,10.90
2022-08-24T11:56:25.907Z,11.50
2022-08-24T11:57:25.805Z,11.00
2022-08-24T11:58:25.803Z,11.10
2022-08-24T11:59:25.803Z,11.30
2022-08-24T12:00:25.806Z,11.30
2022-08-24T12:01:25.808Z,11.40
2022-08-24T12:02:25.938Z,11.80
2022-08-24T12:03:25.950Z,11.30
2022-08-24T12:04:25.809Z,11.50
2022-08-24T12:05:25.809Z,11.30
2022-08-24T12:06:27.629Z,10.70
2022-08-24T12:07:25.811Z,11.30
2022-08-24T12:08:25.811Z,8.30
2022-08-24T12:09:25.815Z,11.80
2022-08-24T12:10:28.541Z,7.40
2022-08-24T12:11:25.817Z,10.40
2022-08-24T12:12:25.822Z,8.60
2022-08-24T12:13:25.817Z,10.60
2022-08-24T12:14:25.820Z,10.10
2022-08-24T12:15:25.818Z,9.70
2022-08-24T12:16:25.909Z,10.80
2022-08-24T12:17:25.821Z,10.80
2022-08-24T12:18:25.821Z,11.70
2022-08-24T12:19:25.821Z,9.10
2022-08-24T12:20:25.830Z,11.20
2022-08-24T12:21:25.825Z,9.30
2022-08-24T12:22:25.821Z,9.50
2022-08-24T12:23:25.822Z,12.00
2022-08-24T12:24:25.827Z,7.90
2022-08-24T12:25:25.830Z,10.20
2022-08-24T12:26:25.828Z,10.50
2022-08-24T12:27:25.829Z,11.40
2022-08-24T12:28:25.832Z,9.90
2022-08-24T12:29:25.830Z,9.60
2022-08-24T12:30:25.831Z,9.60
2022-08-24T12:31:25.878Z,11.10
2022-08-24T12:32:25.836Z,9.80
2022-08-24T12:33:25.838Z,12.10
2022-08-24T12:34:25.834Z,11.30
2022-08-24T12:35:25.835Z,12.60
2022-08-24T12:36:25.837Z,8.50
2022-08-24T12:37:25.843Z,8.80
2022-08-24T12:38:25.840Z,10.60
2022-08-24T12:39:25.841Z,10.50
2022-08-24T12:40:25.874Z,10.20
2022-08-24T12:41:25.844Z,9.30
2022-08-24T12:42:25.847Z,9.70
2022-08-24T12:43:25.847Z,9.20
2022-08-24T12:44:25.851Z,9.80
2022-08-24T12:45:25.853Z,8.40
2022-08-24T12:46:25.913Z,8.00
2022-08-24T12:47:25.853Z,8.50
2022-08-24T12:48:25.853Z,8.20
2022-08-24T12:49:25.858Z,8.80
2022-08-24T12:50:25.857Z,9.80
2022-08-24T12:51:25.860Z,8.50
2022-08-24T12:52:25.860Z,8.20
2022-08-24T12:53:26.429Z,10.80
2022-08-24T12:54:25.862Z,8.80
2022-08-24T12:55:25.865Z,8.40
2022-08-24T12:56:25.866Z,11.30
2022-08-24T12:57:25.871Z,8.90
2022-08-24T12:58:34.994Z,10.10
2022-08-24T12:59:25.872Z,10.20
2022-08-24T13:00:26.042Z,7.40
2022-08-24T13:01:25.875Z,8.90
2022-08-24T13:02:25.917Z,11.20
2022-08-24T13:03:25.879Z,10.20